Hamburg, Arkansas
Current Conditions -  °F | °C
As of 2:11 AM on Monday 22 Dec 2014 (Local Time) from KLLQ Reporting Station
Overcast Overcast  
Wind Chill: 45°   Ceiling: 600
Heat Index: 47°   Visibility: 10mi
Dew Point: 44°   Wind: 5mph
Humidity: 90%   Direction: 170°S
Pressure: 29.86"   Gusts: NA
Location:  33.23°N, 91.8°W
Report Text: KLLQ 220811Z AUTO 17004KT 10SM BKN006 OVC009 08/07 A2986 RMK AO2 CIG 005V009 T00830067
Loading
Personal Weather Stations






























Interactive Weather Map New forecast layout! Learn more

10-Day Weather Forecast

Advertisements
Track Severe Weather on mobile